createdAt,value
2019-04-01T00:01:50.635Z,1.80
2019-04-01T00:04:19.807Z,1.67
2019-04-01T00:06:49.257Z,2.10
2019-04-01T00:09:21.323Z,2.00
2019-04-01T00:11:52.519Z,1.57
2019-04-01T00:14:21.677Z,1.90
2019-04-01T00:16:52.357Z,1.60
2019-04-01T00:19:21.514Z,1.57
2019-04-01T00:21:50.655Z,1.60
2019-04-01T00:24:19.763Z,1.50
2019-04-01T00:26:50.011Z,1.70
2019-04-01T00:29:19.219Z,1.87
2019-04-01T00:31:48.393Z,1.90
2019-04-01T00:34:17.531Z,1.50
2019-04-01T00:36:47.280Z,1.27
2019-04-01T00:39:16.850Z,0.60
2019-04-01T00:41:57.392Z,1.13
2019-04-01T00:44:26.754Z,1.43
2019-04-01T00:46:56.619Z,0.67
2019-04-01T00:49:26.254Z,0.73
2019-04-01T00:51:57.119Z,0.93
2019-04-01T00:54:26.229Z,0.70
2019-04-01T00:56:56.776Z,0.90
2019-04-01T00:59:28.714Z,0.80
2019-04-01T01:01:57.932Z,1.37
2019-04-01T01:04:27.378Z,1.10
2019-04-01T01:06:59.704Z,1.10
2019-04-01T01:09:29.132Z,1.00
2019-04-01T01:11:58.446Z,1.23
2019-04-01T01:14:29.926Z,1.10
2019-04-01T01:16:59.029Z,0.67
2019-04-01T01:19:28.209Z,0.77
2019-04-01T01:21:59.832Z,1.40
2019-04-01T01:24:32.237Z,0.53
2019-04-01T01:26:59.811Z,1.10
2019-04-01T01:29:28.912Z,0.80
2019-04-01T01:31:58.089Z,1.07
2019-04-01T01:34:27.113Z,0.70
2019-04-01T01:36:56.247Z,0.97
2019-04-01T01:39:25.343Z,1.17
2019-04-01T01:41:55.611Z,0.90
2019-04-01T01:44:24.745Z,0.60
2019-04-01T01:46:53.883Z,1.00
2019-04-01T01:49:23.030Z,0.63
2019-04-01T01:51:53.219Z,1.13
2019-04-01T01:54:25.835Z,1.40
2019-04-01T01:56:54.890Z,0.90
2019-04-01T01:59:23.955Z,0.93
2019-04-01T02:01:53.068Z,1.00
2019-04-01T02:04:22.228Z,1.17
2019-04-01T02:06:54.003Z,1.00
2019-04-01T02:09:23.149Z,0.70
2019-04-01T02:11:52.806Z,1.50
2019-04-01T02:14:24.632Z,0.87
2019-04-01T02:16:59.339Z,1.30
2019-04-01T02:19:28.492Z,1.37
2019-04-01T02:21:57.664Z,0.90
2019-04-01T02:24:26.790Z,1.03
2019-04-01T02:26:55.886Z,1.23
2019-04-01T02:29:24.922Z,0.90
2019-04-01T02:31:54.073Z,1.17
2019-04-01T02:34:23.190Z,1.30
2019-04-01T02:36:52.432Z,1.03
2019-04-01T02:39:25.228Z,1.20
2019-04-01T02:41:54.365Z,0.90
2019-04-01T02:44:23.450Z,1.30
2019-04-01T02:46:52.654Z,0.90
2019-04-01T02:49:21.962Z,1.40
2019-04-01T02:51:51.195Z,1.50
2019-04-01T02:54:20.398Z,1.37
2019-04-01T02:56:49.573Z,0.70
2019-04-01T02:59:19.007Z,1.00
2019-04-01T03:01:48.111Z,0.90
2019-04-01T03:04:17.353Z,1.43
2019-04-01T03:06:46.502Z,0.60
2019-04-01T03:09:15.704Z,1.23
2019-04-01T03:11:44.866Z,1.00
2019-04-01T03:14:13.970Z,0.80
2019-04-01T03:16:43.202Z,1.27
2019-04-01T03:19:12.401Z,0.77
2019-04-01T03:21:41.967Z,1.00
2019-04-01T03:24:11.135Z,1.00
2019-04-01T03:26:42.586Z,1.20
2019-04-01T03:29:11.694Z,1.07
2019-04-01T03:31:41.242Z,0.87
2019-04-01T03:34:12.238Z,1.10
2019-04-01T03:36:41.816Z,0.90
2019-04-01T03:39:11.160Z,1.60
2019-04-01T03:41:40.355Z,0.67
2019-04-01T03:44:09.465Z,0.60
2019-04-01T03:46:41.143Z,1.33
2019-04-01T03:49:10.578Z,0.70
2019-04-01T03:51:39.685Z,0.80
2019-04-01T03:54:09.022Z,1.03
2019-04-01T03:56:38.387Z,0.60
2019-04-01T03:59:07.890Z,1.20
2019-04-01T04:01:38.390Z,0.80
2019-04-01T04:04:07.527Z,0.70
2019-04-01T04:06:36.788Z,1.10
2019-04-01T04:09:07.381Z,1.00
2019-04-01T04:11:37.741Z,1.00
2019-04-01T04:14:06.943Z,1.10
2019-04-01T04:16:36.385Z,0.70
2019-04-01T04:19:07.717Z,0.80
2019-04-01T04:21:40.042Z,0.90
2019-04-01T04:24:10.473Z,0.80
2019-04-01T04:26:42.007Z,0.87
2019-04-01T04:29:11.064Z,1.10
2019-04-01T04:31:40.316Z,1.10
2019-04-01T04:34:10.633Z,0.40
2019-04-01T04:36:39.836Z,0.73
2019-04-01T04:39:09.064Z,0.80
2019-04-01T04:41:38.153Z,1.07
2019-04-01T04:44:07.326Z,0.90
2019-04-01T04:46:38.274Z,0.80
2019-04-01T04:49:11.137Z,1.00
2019-04-01T04:51:40.255Z,0.73
2019-04-01T04:54:09.488Z,0.90
2019-04-01T04:56:39.783Z,1.03
2019-04-01T04:59:09.383Z,0.90
2019-04-01T05:01:38.521Z,1.20
2019-04-01T05:04:08.772Z,1.23
2019-04-01T05:06:37.866Z,0.90
2019-04-01T05:09:07.833Z,1.43
2019-04-01T05:11:37.076Z,1.27
2019-04-01T05:14:06.208Z,0.57
2019-04-01T05:16:35.331Z,0.90
2019-04-01T05:19:04.733Z,1.40
2019-04-01T05:21:35.787Z,1.17
2019-04-01T05:24:06.537Z,1.03
2019-04-01T05:26:38.338Z,0.57
2019-04-01T05:29:08.621Z,0.90
2019-04-01T05:31:42.925Z,0.87
2019-04-01T05:34:14.759Z,1.13
2019-04-01T05:36:45.437Z,0.73
2019-04-01T05:39:16.006Z,1.20
2019-04-01T05:41:46.442Z,0.90
2019-04-01T05:44:17.732Z,1.00
2019-04-01T05:46:46.980Z,0.80
2019-04-01T05:49:16.490Z,0.90
2019-04-01T05:51:46.728Z,1.33
2019-04-01T05:54:17.326Z,1.10
2019-04-01T05:56:47.007Z,0.90
2019-04-01T05:59:16.237Z,1.70
2019-04-01T06:01:46.819Z,1.57
2019-04-01T06:04:26.126Z,1.23
2019-04-01T06:06:56.237Z,1.27
2019-04-01T06:09:25.426Z,1.10
2019-04-01T06:11:54.739Z,0.90
2019-04-01T06:14:25.340Z,1.40
2019-04-01T06:16:55.613Z,1.43
2019-04-01T06:19:24.759Z,1.40
2019-04-01T06:21:54.077Z,1.20
2019-04-01T06:24:24.737Z,1.60
2019-04-01T06:26:54.895Z,0.93
2019-04-01T06:29:24.071Z,1.90
2019-04-01T06:31:53.253Z,1.60
2019-04-01T06:34:23.039Z,1.37
2019-04-01T06:36:52.789Z,1.63
2019-04-01T06:39:22.018Z,1.53
2019-04-01T06:41:52.321Z,1.57
2019-04-01T06:44:21.561Z,1.40
2019-04-01T06:46:53.806Z,1.43
2019-04-01T06:49:23.695Z,1.87
2019-04-01T06:51:53.017Z,1.93
2019-04-01T06:54:22.274Z,1.47
2019-04-01T06:56:53.728Z,1.73
2019-04-01T06:59:23.015Z,1.60
2019-04-01T07:01:53.486Z,1.90
2019-04-01T07:04:24.029Z,1.83
2019-04-01T07:06:53.494Z,1.63
2019-04-01T07:09:23.146Z,1.70
2019-04-01T07:11:53.024Z,1.60
2019-04-01T07:14:23.565Z,2.93
2019-04-01T07:16:52.659Z,1.80
2019-04-01T07:19:22.861Z,1.87
2019-04-01T07:22:17.911Z,1.53
2019-04-01T07:24:47.040Z,1.40
2019-04-01T07:27:17.405Z,1.40
2019-04-01T07:29:46.533Z,1.00
2019-04-01T07:32:15.967Z,1.70
2019-04-01T07:34:45.399Z,1.57
2019-04-01T07:37:14.597Z,1.87
2019-04-01T07:39:43.744Z,2.13
2019-04-01T07:42:12.826Z,1.37
2019-04-01T07:44:42.383Z,1.27
2019-04-01T07:47:11.822Z,1.67
2019-04-01T07:49:42.107Z,1.53
2019-04-01T07:52:12.499Z,1.40
2019-04-01T07:54:42.699Z,1.53
2019-04-01T07:57:11.874Z,1.90
2019-04-01T07:59:42.132Z,1.47
2019-04-01T08:02:13.398Z,1.60
2019-04-01T08:04:43.095Z,1.80
2019-04-01T08:07:15.697Z,1.70
2019-04-01T08:09:45.179Z,1.53
2019-04-01T08:12:15.377Z,1.77
2019-04-01T08:14:44.872Z,2.90
2019-04-01T08:17:14.226Z,1.73
2019-04-01T08:20:03.515Z,2.03
2019-04-01T08:22:32.970Z,2.10
2019-04-01T08:25:03.590Z,1.90
2019-04-01T08:27:32.829Z,2.07
2019-04-01T08:30:01.910Z,1.93
2019-04-01T08:32:31.024Z,1.90
2019-04-01T08:35:03.005Z,2.17
2019-04-01T08:37:33.637Z,1.73
2019-04-01T08:40:09.205Z,2.10
2019-04-01T08:42:38.087Z,1.80
2019-04-01T08:45:08.426Z,2.37
2019-04-01T08:47:37.653Z,1.90
2019-04-01T08:50:07.293Z,1.50
2019-04-01T08:52:36.581Z,1.93
2019-04-01T08:55:08.817Z,1.83
2019-04-01T08:57:37.828Z,1.90
2019-04-01T09:00:08.512Z,2.60
2019-04-01T09:02:37.672Z,2.17
2019-04-01T09:05:07.217Z,2.07
2019-04-01T09:07:41.892Z,2.20
2019-04-01T09:10:11.492Z,2.77
2019-04-01T09:12:42.952Z,2.50
2019-04-01T09:15:14.581Z,2.60
2019-04-01T09:17:43.770Z,2.00
2019-04-01T09:20:16.861Z,2.53
2019-04-01T09:22:45.929Z,2.50
2019-04-01T09:25:15.084Z,2.40
2019-04-01T09:27:44.261Z,2.37
2019-04-01T09:30:13.584Z,2.17
2019-04-01T09:32:42.791Z,2.60
2019-04-01T09:35:12.994Z,2.10
2019-04-01T09:37:42.344Z,2.57
2019-04-01T09:40:13.989Z,2.43
2019-04-01T09:42:43.139Z,2.07
2019-04-01T09:45:14.004Z,2.90
2019-04-01T09:47:43.189Z,2.10
2019-04-01T09:50:13.281Z,2.30
2019-04-01T09:52:42.448Z,2.60
2019-04-01T09:55:11.798Z,2.50
2019-04-01T09:57:40.904Z,2.57
2019-04-01T10:00:11.598Z,2.50
2019-04-01T10:02:40.784Z,2.80
2019-04-01T10:05:10.521Z,2.50
2019-04-01T10:07:39.822Z,2.90
2019-04-01T10:10:09.511Z,3.07
2019-04-01T10:12:38.628Z,2.43
2019-04-01T10:15:09.291Z,3.00
2019-04-01T10:17:38.499Z,3.00
2019-04-01T10:20:09.619Z,2.60
2019-04-01T10:22:41.091Z,3.07
2019-04-01T10:25:11.639Z,3.00
2019-04-01T10:27:40.745Z,2.87
2019-04-01T10:30:11.172Z,2.30
2019-04-01T10:32:40.282Z,3.00
2019-04-01T10:35:10.114Z,2.50
2019-04-01T10:37:39.530Z,2.80
2019-04-01T10:40:09.463Z,3.20
2019-04-01T10:42:38.624Z,2.80
2019-04-01T10:45:10.499Z,2.97
2019-04-01T10:47:44.965Z,3.30
2019-04-01T10:50:16.475Z,3.17
2019-04-01T10:52:47.413Z,3.00
2019-04-01T10:55:17.068Z,3.30
2019-04-01T10:57:46.768Z,3.73
2019-04-01T11:00:19.475Z,3.30
2019-04-01T11:02:50.137Z,3.37
2019-04-01T11:05:21.092Z,3.63
2019-04-01T11:07:52.752Z,3.50
2019-04-01T11:10:21.944Z,3.10
2019-04-01T11:12:53.976Z,3.93
2019-04-01T11:15:23.357Z,3.90
2019-04-01T11:17:52.884Z,3.67
2019-04-01T11:20:22.347Z,3.90
2019-04-01T11:22:51.539Z,3.53
2019-04-01T11:25:21.086Z,3.03
2019-04-01T11:27:50.444Z,3.73
2019-04-01T11:30:19.675Z,3.30
2019-04-01T11:32:48.863Z,3.90
2019-04-01T11:35:19.569Z,3.90
2019-04-01T11:37:49.692Z,3.90
2019-04-01T11:40:21.529Z,3.77
2019-04-01T11:42:52.944Z,3.77
2019-04-01T11:45:22.921Z,4.20
2019-04-01T11:47:53.917Z,4.20
2019-04-01T11:50:23.149Z,3.93
2019-04-01T11:52:52.336Z,3.87
2019-04-01T11:55:21.512Z,4.00
2019-04-01T11:57:50.724Z,4.27
2019-04-01T12:00:21.381Z,3.70
2019-04-01T12:02:53.572Z,3.70
2019-04-01T12:05:22.744Z,3.90
2019-04-01T12:07:52.162Z,3.97
2019-04-01T12:10:23.004Z,4.03
2019-04-01T12:12:52.179Z,3.70
2019-04-01T12:15:22.210Z,4.10
2019-04-01T12:17:51.313Z,4.13
2019-04-01T12:20:20.530Z,4.00
2019-04-01T12:22:49.665Z,4.10
2019-04-01T12:25:18.810Z,4.13
2019-04-01T12:27:47.972Z,4.33
2019-04-01T12:30:17.141Z,4.57
2019-04-01T12:32:46.644Z,4.27
2019-04-01T12:35:16.547Z,4.40
2019-04-01T12:37:46.269Z,4.33
2019-04-01T12:40:15.868Z,4.90
2019-04-01T12:42:50.681Z,5.07
2019-04-01T12:45:18.830Z,4.50
2019-04-01T12:47:48.153Z,4.67
2019-04-01T12:50:18.549Z,5.20
2019-04-01T12:52:48.984Z,5.17
2019-04-01T12:55:18.187Z,5.37
2019-04-01T12:57:48.546Z,5.00
2019-04-01T13:00:19.945Z,5.30
2019-04-01T13:02:49.597Z,5.30
2019-04-01T13:05:19.120Z,5.17
2019-04-01T13:07:49.170Z,5.17
2019-04-01T13:10:22.738Z,5.43
2019-04-01T13:12:54.175Z,4.90
2019-04-01T13:15:23.019Z,5.37
2019-04-01T13:18:04.705Z,4.90
2019-04-01T13:20:38.125Z,5.10
2019-04-01T13:23:08.187Z,5.70
2019-04-01T13:25:38.182Z,5.23
2019-04-01T13:28:08.391Z,5.37
2019-04-01T13:30:39.662Z,5.03
2019-04-01T13:33:09.284Z,5.13
2019-04-01T13:35:39.891Z,5.60
2019-04-01T13:38:11.827Z,5.37
2019-04-01T13:40:46.222Z,5.07
2019-04-01T13:43:17.180Z,4.80
2019-04-01T13:45:47.401Z,5.00
2019-04-01T13:48:16.541Z,5.27
2019-04-01T13:50:46.120Z,5.27
2019-04-01T13:53:17.478Z,5.43
2019-04-01T13:55:48.235Z,5.47
2019-04-01T13:58:20.109Z,5.10
2019-04-01T14:00:52.222Z,4.67
2019-04-01T14:03:23.677Z,5.10
2019-04-01T14:05:54.924Z,5.50
2019-04-01T14:08:27.049Z,4.90
2019-04-01T14:10:58.196Z,6.07
2019-04-01T14:13:27.319Z,4.87
2019-04-01T14:15:57.447Z,5.63
2019-04-01T14:18:31.425Z,5.40
2019-04-01T14:21:15.332Z,5.40
2019-04-01T14:23:34.484Z,5.67
2019-04-01T14:26:03.762Z,5.30
2019-04-01T14:28:35.706Z,5.10
2019-04-01T14:31:06.396Z,5.07
2019-04-01T14:33:35.823Z,4.30
2019-04-01T14:36:06.798Z,5.37
2019-04-01T14:38:35.981Z,4.93
2019-04-01T14:41:05.814Z,5.30
2019-04-01T14:43:37.452Z,5.33
2019-04-01T14:46:16.214Z,5.43
2019-04-01T14:48:48.825Z,5.47
2019-04-01T14:51:18.600Z,5.03
2019-04-01T14:53:48.179Z,5.43
2019-04-01T14:56:33.026Z,5.17
2019-04-01T14:59:04.038Z,5.60
2019-04-01T15:01:35.207Z,5.60
2019-04-01T15:04:06.037Z,4.53
2019-04-01T15:06:38.061Z,5.57
2019-04-01T15:09:08.453Z,4.73
2019-04-01T15:11:38.081Z,3.93
2019-04-01T15:14:08.713Z,5.70
2019-04-01T15:16:38.193Z,4.73
2019-04-01T15:19:07.327Z,5.50
2019-04-01T15:21:36.453Z,5.30
2019-04-01T15:24:05.633Z,5.40
2019-04-01T15:26:34.816Z,5.47
2019-04-01T15:29:03.963Z,4.87
2019-04-01T15:31:33.111Z,5.00
2019-04-01T15:34:02.231Z,5.70
2019-04-01T15:36:31.622Z,6.07
2019-04-01T15:39:01.979Z,5.57
2019-04-01T15:41:31.101Z,5.90
2019-04-01T15:44:01.462Z,5.60
2019-04-01T15:46:30.636Z,5.40
2019-04-01T15:49:01.048Z,5.27
2019-04-01T15:51:30.435Z,6.13
2019-04-01T15:54:04.310Z,6.07
2019-04-01T15:56:33.738Z,5.80
2019-04-01T15:59:03.807Z,6.10
2019-04-01T16:01:32.983Z,5.50
2019-04-01T16:04:02.090Z,6.13
2019-04-01T16:06:31.493Z,5.87
2019-04-01T16:09:01.127Z,6.10
2019-04-01T16:11:30.263Z,6.03
2019-04-01T16:13:59.379Z,6.13
2019-04-01T16:16:30.793Z,6.17
2019-04-01T16:19:01.232Z,5.80
2019-04-01T16:21:31.515Z,6.27
2019-04-01T16:24:03.538Z,5.97
2019-04-01T16:26:38.983Z,5.67
2019-04-01T16:29:09.103Z,5.77
2019-04-01T16:31:38.240Z,6.00
2019-04-01T16:34:07.343Z,6.17
2019-04-01T16:36:36.455Z,6.20
2019-04-01T16:39:08.539Z,6.03
2019-04-01T16:41:39.309Z,6.20
2019-04-01T16:44:10.523Z,6.07
2019-04-01T16:46:48.836Z,5.70
2019-04-01T16:49:19.414Z,5.07
2019-04-01T16:51:49.356Z,6.53
2019-04-01T16:54:21.272Z,6.23
2019-04-01T16:56:53.638Z,6.10
2019-04-01T16:59:28.014Z,6.27
2019-04-01T17:01:58.492Z,6.40
2019-04-01T17:04:33.770Z,6.17
2019-04-01T17:07:07.797Z,6.10
2019-04-01T17:09:37.044Z,6.77
2019-04-01T17:12:11.024Z,6.00
2019-04-01T17:14:41.737Z,6.20
2019-04-01T17:17:11.004Z,7.30
2019-04-01T17:19:40.382Z,6.10
2019-04-01T17:22:13.094Z,6.43
2019-04-01T17:24:46.127Z,6.50
2019-04-01T17:27:17.156Z,6.57
2019-04-01T17:29:48.882Z,6.70
2019-04-01T17:32:20.332Z,6.40
2019-04-01T17:34:49.493Z,6.17
2019-04-01T17:37:18.615Z,6.37
2019-04-01T17:39:50.785Z,6.23
2019-04-01T17:42:21.198Z,6.10
2019-04-01T17:44:57.685Z,6.70
2019-04-01T17:47:31.605Z,6.50
2019-04-01T17:50:02.323Z,6.87
2019-04-01T17:52:34.465Z,6.67
2019-04-01T17:55:03.617Z,6.80
2019-04-01T17:57:32.880Z,7.20
2019-04-01T18:00:04.075Z,6.80
2019-04-01T18:02:35.194Z,6.13
2019-04-01T18:05:05.540Z,7.30
2019-04-01T18:07:36.092Z,6.53
2019-04-01T18:10:07.132Z,6.77
2019-04-01T18:12:38.078Z,7.43
2019-04-01T18:15:07.528Z,6.87
2019-04-01T18:17:39.229Z,6.93
2019-04-01T18:20:10.397Z,7.13
2019-04-01T18:22:39.586Z,7.17
2019-04-01T18:25:09.032Z,6.83
2019-04-01T18:27:38.248Z,6.57
2019-04-01T18:30:08.398Z,7.67
2019-04-01T18:32:39.762Z,7.13
2019-04-01T18:35:12.198Z,7.30
2019-04-01T18:37:41.354Z,6.93
2019-04-01T18:40:11.051Z,7.40
2019-04-01T18:42:42.352Z,7.30
2019-04-01T18:45:18.084Z,7.07
2019-04-01T18:47:50.402Z,6.80
2019-04-01T18:50:20.124Z,7.47
2019-04-01T18:52:53.425Z,7.77
2019-04-01T18:55:22.567Z,7.80
2019-04-01T18:57:51.786Z,7.50
2019-04-01T19:00:21.691Z,7.83
2019-04-01T19:02:50.937Z,7.93
2019-04-01T19:05:21.493Z,7.47
2019-04-01T19:07:52.609Z,7.57
2019-04-01T19:10:23.102Z,7.63
2019-04-01T19:13:05.223Z,8.90
2019-04-01T19:15:26.479Z,7.70
2019-04-01T19:17:57.513Z,7.93
2019-04-01T19:20:30.514Z,7.97
2019-04-01T19:23:02.147Z,8.20
2019-04-01T19:25:34.737Z,8.10
2019-04-01T19:28:06.882Z,8.63
2019-04-01T19:30:36.626Z,8.30
2019-04-01T19:33:08.919Z,8.30
2019-04-01T19:35:41.266Z,7.60
2019-04-01T19:38:13.006Z,8.57
2019-04-01T19:40:44.216Z,8.83
2019-04-01T19:43:16.400Z,8.17
2019-04-01T19:45:50.583Z,8.07
2019-04-01T19:48:21.982Z,8.50
2019-04-01T19:50:51.148Z,8.27
2019-04-01T19:53:20.360Z,7.93
2019-04-01T19:55:53.844Z,7.93
2019-04-01T19:58:23.235Z,8.40
2019-04-01T20:00:54.175Z,9.57
2019-04-01T20:03:25.370Z,9.20
2019-04-01T20:05:54.507Z,9.17
2019-04-01T20:08:24.490Z,8.07
2019-04-01T20:10:57.617Z,9.30
2019-04-01T20:13:27.151Z,9.47
2019-04-01T20:15:56.313Z,9.00
2019-04-01T20:18:25.763Z,9.77
2019-04-01T20:20:56.204Z,9.20
2019-04-01T20:23:25.392Z,9.60
2019-04-01T20:25:54.908Z,9.07
2019-04-01T20:28:26.581Z,9.30
2019-04-01T20:30:58.447Z,8.90
2019-04-01T20:33:31.788Z,8.90
2019-04-01T20:36:02.796Z,8.97
2019-04-01T20:38:35.134Z,9.20
2019-04-01T20:41:11.620Z,9.47
2019-04-01T20:43:41.446Z,9.57
2019-04-01T20:46:11.093Z,9.40
2019-04-01T20:48:42.013Z,9.37
2019-04-01T20:51:11.310Z,9.63
2019-04-01T20:53:40.550Z,9.73
2019-04-01T20:56:09.898Z,9.53
2019-04-01T20:58:39.217Z,9.17
2019-04-01T21:01:08.528Z,10.00
2019-04-01T21:03:58.930Z,10.17
2019-04-01T21:06:30.149Z,9.80
2019-04-01T21:08:59.358Z,10.33
2019-04-01T21:11:33.882Z,10.20
2019-04-01T21:14:03.230Z,10.30
2019-04-01T21:16:32.949Z,10.07
2019-04-01T21:19:02.252Z,10.07
2019-04-01T21:21:31.431Z,9.93
2019-04-01T21:24:00.920Z,9.90
2019-04-01T21:26:33.358Z,10.40
2019-04-01T21:29:02.823Z,9.83
2019-04-01T21:31:32.031Z,10.20
2019-04-01T21:34:01.204Z,9.37
2019-04-01T21:36:30.411Z,10.00
2019-04-01T21:39:01.040Z,11.13
2019-04-01T21:41:30.432Z,10.10
2019-04-01T21:44:00.638Z,9.83
2019-04-01T21:46:39.660Z,10.43
2019-04-01T21:49:09.223Z,10.90
2019-04-01T21:51:38.414Z,10.37
2019-04-01T21:54:11.450Z,10.40
2019-04-01T21:56:40.952Z,9.70
2019-04-01T21:59:11.244Z,9.77
2019-04-01T22:01:40.780Z,9.33
2019-04-01T22:04:11.964Z,10.10
2019-04-01T22:06:41.486Z,10.40
2019-04-01T22:09:11.913Z,10.00
2019-04-01T22:11:41.149Z,9.57
2019-04-01T22:14:11.835Z,9.43
2019-04-01T22:16:43.644Z,9.43
2019-04-01T22:19:12.855Z,9.50
2019-04-01T22:21:43.283Z,9.40
2019-04-01T22:24:12.432Z,9.73
2019-04-01T22:26:43.835Z,9.47
2019-04-01T22:29:13.846Z,9.60
2019-04-01T22:31:44.789Z,9.40
2019-04-01T22:34:14.969Z,9.53
2019-04-01T22:36:44.069Z,9.10
2019-04-01T22:39:13.153Z,9.30
2019-04-01T22:41:42.777Z,8.93
2019-04-01T22:44:12.663Z,9.57
2019-04-01T22:46:41.939Z,9.20
2019-04-01T22:49:12.048Z,8.70
2019-04-01T22:51:42.424Z,9.03
2019-04-01T22:54:11.769Z,7.97
2019-04-01T22:56:40.909Z,10.03
2019-04-01T22:59:10.378Z,9.37
2019-04-01T23:01:39.819Z,9.40
2019-04-01T23:04:09.102Z,9.27
2019-04-01T23:06:38.747Z,9.03
2019-04-01T23:09:09.950Z,9.40
2019-04-01T23:11:39.170Z,9.27
2019-04-01T23:14:08.598Z,9.20
2019-04-01T23:16:38.980Z,9.10
2019-04-01T23:19:08.244Z,9.13
2019-04-01T23:21:37.364Z,9.40
2019-04-01T23:24:06.571Z,8.77
2019-04-01T23:26:36.498Z,8.90
2019-04-01T23:29:06.015Z,8.80
2019-04-01T23:31:38.787Z,8.93
2019-04-01T23:34:10.088Z,9.70
2019-04-01T23:36:40.176Z,10.03
2019-04-01T23:39:10.443Z,9.63
2019-04-01T23:41:40.919Z,10.00
2019-04-01T23:44:10.117Z,9.73
2019-04-01T23:46:39.551Z,9.53
2019-04-01T23:49:08.741Z,10.20
2019-04-01T23:51:37.805Z,10.27
2019-04-01T23:54:06.913Z,10.30
2019-04-01T23:56:36.601Z,10.20
2019-04-01T23:59:07.991Z,9.77
